Time;durP1;ratioP1;P1;durP2;ratioP2;P2;SDS_P1;SDS_P2;PMS_P1;PMS_P2;Temp;Humidity;BMP_temperature;BMP_pressure;BME280_temperature;BME280_humidity;BME280_pressure;Samples;Min_cycle;Max_cycle;Signal;HPM_P1;HPM_P2
2022/04/27 00:00:11;;;;;;;8.13;5.32;;;;;;;6.88;96.31;102276.22;6433874;23;20020;-71
2022/04/27 00:02:43;;;;;;;12.90;5.57;;;;;;;6.89;95.27;102275.28;6434655;23;20451;-70
2022/04/27 00:05:14;;;;;;;9.40;4.90;;;;;;;6.85;95.73;102271.16;6434913;23;20004;-71
2022/04/27 00:07:45;;;;;;;8.82;5.10;;;;;;;6.73;96.54;102269.94;6430660;23;20455;-71
2022/04/27 00:10:19;;;;;;;8.43;5.75;;;;;;;6.71;97.54;102270.97;6435055;23;20005;-70
2022/04/27 00:12:51;;;;;;;;;;;;;;;7.25;91.17;102267.53;6436543;23;20005;-71
2022/04/27 00:15:25;;;;;;;8.88;5.35;;;;;;;6.68;96.52;102269.31;6436603;23;19914;-70
2022/04/27 00:17:56;;;;;;;11.07;5.68;;;;;;;6.64;95.96;102270.38;6435937;23;20008;-71
2022/04/27 00:20:27;;;;;;;9.00;6.68;;;;;;;6.62;97.34;102261.78;6409146;23;20070;-70
2022/04/27 00:22:59;;;;;;;12.38;6.20;;;;;;;6.54;99.00;102261.28;6436085;23;20004;-70
2022/04/27 00:25:30;;;;;;;9.75;5.63;;;;;;;6.48;98.36;102264.19;6408946;23;20013;-70
2022/04/27 00:28:01;;;;;;;8.13;6.05;;;;;;;6.46;100.00;102256.44;6436785;23;20009;-70
2022/04/27 00:30:33;;;;;;;10.27;6.15;;;;;;;6.31;99.25;102251.91;6437119;23;20032;-71
2022/04/27 00:33:04;;;;;;;7.38;5.47;;;;;;;6.36;100.00;102269.91;6436332;23;20001;-70
2022/04/27 00:35:37;;;;;;;9.57;5.85;;;;;;;6.36;98.64;102270.75;6435886;23;20459;-70
2022/04/27 00:38:08;;;;;;;8.57;5.28;;;;;;;6.30;98.51;102274.50;6436708;23;20009;-70
2022/04/27 00:40:39;;;;;;;9.25;5.93;;;;;;;6.24;99.66;102277.34;6436337;23;20005;-70
2022/04/27 00:43:14;;;;;;;11.02;5.88;;;;;;;6.26;100.00;102275.53;6408958;23;20029;-70
2022/04/27 00:45:46;;;;;;;8.75;5.70;;;;;;;6.15;100.00;102282.13;6435052;23;20005;-70
2022/04/27 00:48:17;;;;;;;9.73;6.13;;;;;;;6.11;100.00;102283.16;6436774;23;20025;-70
2022/04/27 00:50:48;;;;;;;7.80;5.70;;;;;;;6.13;99.88;102276.13;6436166;23;20009;-70
2022/04/27 00:53:20;;;;;;;9.30;6.43;;;;;;;6.08;100.00;102284.97;6436667;23;20005;-70
2022/04/27 00:55:51;;;;;;;9.38;6.38;;;;;;;6.02;100.00;102287.88;6435458;23;20009;-71
2022/04/27 00:58:25;;;;;;;10.27;7.13;;;;;;;6.01;100.00;102285.31;6409490;23;20136;-71
2022/04/27 01:00:56;;;;;;;9.00;6.95;;;;;;;6.03;100.00;102291.31;6436412;23;20029;-70
2022/04/27 01:03:27;;;;;;;9.48;6.75;;;;;;;5.96;100.00;102288.09;6436419;23;20057;-70
2022/04/27 01:06:01;;;;;;;11.48;7.40;;;;;;;5.93;100.00;102288.22;6435900;23;20012;-71
2022/04/27 01:08:32;;;;;;;12.30;7.15;;;;;;;5.89;100.00;102285.81;6436640;23;20105;-70
2022/04/27 01:11:05;;;;;;;10.50;7.57;;;;;;;5.83;100.00;102284.28;6436184;23;20454;-70
2022/04/27 01:13:38;;;;;;;9.40;7.60;;;;;;;5.83;100.00;102289.50;6409720;23;20012;-70
2022/04/27 01:16:10;;;;;;;10.02;7.60;;;;;;;5.84;100.00;102291.19;6435329;23;20426;-70
2022/04/27 01:18:42;;;;;;;9.70;8.70;;;;;;;5.76;100.00;102293.28;6436481;23;20078;-71
2022/04/27 01:21:14;;;;;;;11.95;8.13;;;;;;;5.78;100.00;102286.25;6436193;23;20034;-70
2022/04/27 01:23:45;;;;;;;10.48;8.75;;;;;;;5.77;100.00;102293.22;6434760;23;20055;-71
2022/04/27 01:26:16;;;;;;;10.35;8.45;;;;;;;5.73;100.00;102285.59;6435787;23;20005;-70
2022/04/27 01:28:48;;;;;;;11.32;8.52;;;;;;;5.67;100.00;102296.25;6436348;23;19997;-70
2022/04/27 01:31:19;;;;;;;11.20;8.48;;;;;;;5.63;100.00;102292.06;6434763;23;20005;-71
2022/04/27 01:33:50;;;;;;;11.45;8.00;;;;;;;5.52;100.00;102303.75;6435759;23;20032;-71
2022/04/27 01:36:22;;;;;;;11.18;8.73;;;;;;;5.50;100.00;102305.56;6435975;23;20379;-70
2022/04/27 01:38:53;;;;;;;10.15;8.43;;;;;;;5.53;100.00;102304.59;6436103;23;20009;-70
2022/04/27 01:41:24;;;;;;;9.48;7.88;;;;;;;5.46;100.00;102293.63;6435087;23;20007;-71
2022/04/27 01:43:57;;;;;;;11.02;8.77;;;;;;;5.47;100.00;102305.69;6435187;23;20063;-70
2022/04/27 01:46:28;;;;;;;14.27;9.45;;;;;;;5.48;100.00;102298.75;6435996;23;20019;-70
2022/04/27 01:49:00;;;;;;;13.10;8.05;;;;;;;5.39;100.00;102296.53;6436380;23;20464;-70
2022/04/27 01:54:21;;;;;;;9.27;8.27;;;;;;;5.39;100.00;102301.72;6434730;23;20016;-71
2022/04/27 01:56:52;;;;;;;10.98;8.68;;;;;;;5.38;100.00;102306.06;6435790;23;20004;-70
2022/04/27 01:59:23;;;;;;;13.18;9.00;;;;;;;5.30;100.00;102300.31;6436073;23;20332;-70
2022/04/27 02:01:57;;;;;;;13.60;8.98;;;;;;;5.31;100.00;102305.47;6435043;23;20430;-70
2022/04/27 02:04:28;;;;;;;;;;;;;;;5.81;100.00;102297.38;6434345;23;20077;-70
2022/04/27 02:06:59;;;;;;;11.38;8.35;;;;;;;5.36;100.00;102310.47;6435184;23;20327;-70
2022/04/27 02:09:31;;;;;;;10.40;8.73;;;;;;;5.27;100.00;102306.50;6409600;23;20021;-70
2022/04/27 02:12:04;;;;;;;12.02;8.65;;;;;;;5.31;100.00;102309.81;6408220;23;20079;-70
2022/04/27 02:14:35;;;;;;;;;;;;;;;5.77;100.00;102306.22;6409725;23;20001;-70
2022/04/27 02:17:06;;;;;;;10.60;8.93;;;;;;;5.30;100.00;102308.09;6436250;23;20346;-70
2022/04/27 02:19:38;;;;;;;13.70;9.60;;;;;;;5.30;100.00;102308.09;6435270;23;20031;-70
2022/04/27 02:22:09;;;;;;;12.45;10.23;;;;;;;5.31;100.00;102313.25;6434569;23;20084;-70
2022/04/27 02:24:40;;;;;;;11.32;9.80;;;;;;;5.29;100.00;102316.81;6435404;23;20059;-70
2022/04/27 02:27:11;;;;;;;13.20;10.40;;;;;;;5.29;100.00;102320.25;6409562;23;20005;-70
2022/04/27 02:29:43;;;;;;;11.30;9.40;;;;;;;5.28;100.00;102320.31;6409147;23;20001;-70
2022/04/27 02:32:15;;;;;;;13.48;11.13;;;;;;;5.25;100.00;102318.69;6408497;23;20016;-70
2022/04/27 02:34:46;;;;;;;10.15;9.13;;;;;;;5.31;100.00;102318.47;6434524;23;20439;-70
2022/04/27 02:37:17;;;;;;;13.38;10.10;;;;;;;5.30;100.00;102319.38;6434865;23;20009;-69
2022/04/27 02:39:49;;;;;;;11.65;10.23;;;;;;;5.26;100.00;102322.13;6435215;23;20040;-70
2022/04/27 02:42:20;;;;;;;12.27;9.85;;;;;;;5.23;100.00;102327.47;6436482;23;20040;-70
2022/04/27 02:44:52;;;;;;;12.00;10.75;;;;;;;5.20;100.00;102336.22;6435025;23;20436;-70
2022/04/27 02:47:24;;;;;;;11.85;10.65;;;;;;;5.20;100.00;102337.97;6435684;23;20324;-70
2022/04/27 02:52:47;;;;;;;12.20;9.45;;;;;;;5.20;100.00;102335.38;6435360;23;20039;-70
2022/04/27 02:55:18;;;;;;;12.63;10.07;;;;;;;5.16;100.00;102341.59;6434340;23;20012;-70
2022/04/27 02:57:50;;;;;;;13.63;10.45;;;;;;;5.14;100.00;102336.44;6435242;23;20413;-70
2022/04/27 03:00:21;;;;;;;12.65;10.70;;;;;;;5.16;100.00;102336.41;6435703;23;20008;-70
2022/04/27 03:02:53;;;;;;;11.85;10.60;;;;;;;5.11;100.00;102339.13;6408627;23;20017;-70
2022/04/27 03:05:24;;;;;;;11.70;10.50;;;;;;;5.04;100.00;102330.75;6434520;23;20016;-70
2022/04/27 03:07:55;;;;;;;12.25;10.18;;;;;;;5.07;100.00;102337.56;6435094;23;20345;-70
2022/04/27 03:10:26;;;;;;;12.35;10.85;;;;;;;5.09;100.00;102338.38;6435379;23;20466;-70
2022/04/27 03:12:59;;;;;;;12.90;10.75;;;;;;;5.05;100.00;102342.84;6435001;23;20433;-70
2022/04/27 03:15:32;;;;;;;13.05;10.73;;;;;;;5.03;100.00;102339.44;6434875;23;20080;-70
2022/04/27 03:18:19;;;;;;;;;;;;;;;5.51;100.00;102337.63;6435577;23;20075;-70
2022/04/27 03:20:51;;;;;;;13.48;11.30;;;;;;;5.01;100.00;102343.00;6435411;23;19987;-70
2022/04/27 03:23:23;;;;;;;16.38;11.23;;;;;;;4.91;100.00;102342.50;6435178;23;20470;-71
2022/04/27 03:25:54;;;;;;;13.15;11.60;;;;;;;4.86;100.00;102350.47;6434794;23;20028;-70
2022/04/27 03:28:25;;;;;;;14.05;11.82;;;;;;;4.71;100.00;102340.63;6434963;23;20348;-70
2022/04/27 03:30:57;;;;;;;14.30;11.63;;;;;;;4.75;100.00;102346.56;6434597;23;20005;-70
2022/04/27 03:33:28;;;;;;;14.45;11.43;;;;;;;4.69;100.00;102337.22;6435242;23;20359;-71
2022/04/27 03:35:59;;;;;;;16.48;12.30;;;;;;;4.68;100.00;102345.94;6435580;22;20012;-70
2022/04/27 03:38:30;;;;;;;13.88;10.65;;;;;;;4.71;100.00;102345.81;6435312;23;20083;-69
2022/04/27 03:41:02;;;;;;;13.65;12.25;;;;;;;4.67;100.00;102348.59;6436291;23;20001;-70
2022/04/27 03:43:33;;;;;;;12.25;11.05;;;;;;;4.64;100.00;102354.72;6436488;23;20021;-70
2022/04/27 03:46:05;;;;;;;15.10;12.57;;;;;;;4.56;100.00;102360.19;6436654;23;20009;-70
2022/04/27 03:48:36;;;;;;;16.13;12.55;;;;;;;4.56;100.00;102351.56;6410340;23;20009;-70
2022/04/27 03:51:09;;;;;;;13.82;11.50;;;;;;;4.56;100.00;102357.59;6436955;23;20083;-70
2022/04/27 03:53:40;;;;;;;14.67;12.60;;;;;;;4.57;100.00;102361.03;6410647;23;20376;-70
2022/04/27 03:56:12;;;;;;;15.75;12.90;;;;;;;4.55;100.00;102358.50;6410105;23;20100;-70
2022/04/27 03:58:43;;;;;;;14.95;13.10;;;;;;;4.53;100.00;102362.91;6436708;23;20001;-70
2022/04/27 04:01:14;;;;;;;14.98;12.35;;;;;;;4.53;100.00;102367.25;6433067;23;20132;-70
2022/04/27 04:03:45;;;;;;;14.07;12.57;;;;;;;4.47;100.00;102368.31;6436690;23;20012;-70
2022/04/27 04:06:17;;;;;;;15.55;12.60;;;;;;;4.46;100.00;102370.94;6434500;23;20372;-70
2022/04/27 04:08:48;;;;;;;16.02;12.68;;;;;;;4.40;100.00;102374.63;6410675;23;20012;-70
2022/04/27 04:11:20;;;;;;;15.15;11.73;;;;;;;4.38;100.00;102379.00;6436325;23;20032;-70
2022/04/27 04:13:51;;;;;;;13.95;12.20;;;;;;;4.33;100.00;102380.91;6434913;23;20063;-70
2022/04/27 04:16:22;;;;;;;16.52;12.90;;;;;;;4.30;100.00;102379.25;6436353;23;20031;-70
2022/04/27 04:18:53;;;;;;;15.43;12.75;;;;;;;4.25;100.00;102377.75;6436870;23;20154;-70
2022/04/27 04:21:26;;;;;;;16.48;13.38;;;;;;;4.27;100.00;102381.09;6436517;23;20004;-70
2022/04/27 04:23:57;;;;;;;16.63;13.87;;;;;;;4.25;100.00;102377.75;6408599;23;20005;-70
2022/04/27 04:29:18;;;;;;;14.13;12.63;;;;;;;4.18;100.00;102386.63;6437259;23;20436;-70
2022/04/27 04:31:49;;;;;;;15.00;12.57;;;;;;;4.19;100.00;102396.09;6435841;23;20005;-69
2022/04/27 04:34:21;;;;;;;14.57;13.05;;;;;;;4.15;100.00;102391.00;6436505;23;20055;-70
2022/04/27 04:36:52;;;;;;;14.70;13.15;;;;;;;4.13;100.00;102389.38;6437143;23;20012;-70
2022/04/27 04:39:23;;;;;;;15.93;13.93;;;;;;;4.16;100.00;102389.25;6435399;23;20124;-71
2022/04/27 04:41:54;;;;;;;16.80;14.18;;;;;;;4.20;100.00;102401.22;6436334;23;20104;-70
2022/04/27 04:44:26;;;;;;;18.48;13.98;;;;;;;4.27;100.00;102401.88;6409999;23;20009;-70
2022/04/27 04:46:57;;;;;;;14.43;12.95;;;;;;;4.23;100.00;102405.47;6436340;23;20005;-70
2022/04/27 04:49:28;;;;;;;17.77;15.30;;;;;;;4.22;100.00;102407.22;6435728;23;20096;-70
2022/04/27 04:51:59;;;;;;;17.73;15.05;;;;;;;4.24;100.00;102418.38;6435846;23;20009;-70
2022/04/27 04:54:31;;;;;;;17.00;15.20;;;;;;;4.19;100.00;102419.44;6436018;23;20363;-70
2022/04/27 04:57:02;;;;;;;16.05;14.35;;;;;;;4.22;100.00;102409.81;6436915;23;20011;-70
2022/04/27 04:59:33;;;;;;;17.90;14.02;;;;;;;4.24;100.00;102413.19;6436051;23;20001;-69
2022/04/27 05:02:05;;;;;;;18.23;14.35;;;;;;;4.30;100.00;102417.34;6436155;23;20015;-70
2022/04/27 05:04:36;;;;;;;16.67;14.90;;;;;;;4.31;100.00;102417.28;6436034;23;20015;-70
2022/04/27 05:07:07;;;;;;;16.88;14.98;;;;;;;4.29;100.00;102421.69;6434659;23;20033;-70
2022/04/27 05:09:39;;;;;;;16.92;15.02;;;;;;;4.29;100.00;102432.06;6436398;23;20322;-70
2022/04/27 05:12:10;;;;;;;19.88;16.55;;;;;;;4.34;100.00;102426.72;6436294;23;20425;-70
2022/04/27 05:14:42;;;;;;;19.30;16.95;;;;;;;4.32;100.00;102418.16;6435721;23;20086;-70
2022/04/27 05:17:13;;;;;;;19.35;16.42;;;;;;;4.37;100.00;102426.63;6435874;23;20054;-70
2022/04/27 05:19:44;;;;;;;18.23;15.80;;;;;;;4.54;100.00;102426.88;6436289;23;20417;-70
2022/04/27 05:22:16;;;;;;;18.83;15.98;;;;;;;4.63;100.00;102436.13;6435796;23;20012;-70
2022/04/27 05:24:47;;;;;;;19.27;17.05;;;;;;;4.69;100.00;102430.69;6435726;23;20499;-70
2022/04/27 05:27:18;;;;;;;19.50;17.10;;;;;;;4.80;100.00;102435.53;6435835;23;20495;-70
2022/04/27 05:32:43;;;;;;;19.63;16.10;;;;;;;4.91;100.00;102441.19;6435807;23;20012;-70
2022/04/27 05:35:15;;;;;;;20.98;16.80;;;;;;;4.93;100.00;102448.94;6435371;23;20009;-70
2022/04/27 05:37:47;;;;;;;18.90;16.52;;;;;;;5.00;100.00;102460.78;6436167;23;20028;-70
2022/04/27 05:40:18;;;;;;;20.90;16.08;;;;;;;5.05;100.00;102454.53;6434056;23;20001;-70
2022/04/27 05:42:49;;;;;;;20.63;16.92;;;;;;;5.14;100.00;102458.53;6434111;23;20021;-70
2022/04/27 05:45:20;;;;;;;21.50;16.02;;;;;;;5.14;100.00;102461.13;6434363;23;20009;-70
2022/04/27 05:47:52;;;;;;;19.05;15.48;;;;;;;5.28;100.00;102460.66;6434830;23;20001;-70
2022/04/27 05:50:23;;;;;;;17.80;14.60;;;;;;;5.36;100.00;102469.84;6435030;23;20135;-70
2022/04/27 05:52:56;;;;;;;16.38;13.75;;;;;;;5.44;100.00;102466.13;6435870;23;20024;-71
2022/04/27 05:55:27;;;;;;;19.52;15.70;;;;;;;5.53;100.00;102466.63;6435244;23;20040;-70
2022/04/27 05:57:59;;;;;;;16.50;14.68;;;;;;;5.59;100.00;102463.78;6435790;23;20009;-70
2022/04/27 06:00:31;;;;;;;17.70;15.00;;;;;;;5.65;100.00;102464.47;6435734;23;20032;-70
2022/04/27 06:03:03;;;;;;;18.27;14.88;;;;;;;5.75;100.00;102471.00;6435276;23;20012;-70
2022/04/27 06:05:34;;;;;;;16.98;14.55;;;;;;;5.88;100.00;102474.84;6435059;23;20009;-70
2022/04/27 06:08:06;;;;;;;21.40;14.50;;;;;;;5.96;100.00;102475.41;6434776;23;20004;-71
2022/04/27 06:10:38;;;;;;;15.43;13.13;;;;;;;6.04;100.00;102469.91;6434045;23;20005;-70
2022/04/27 06:13:09;;;;;;;16.38;12.95;;;;;;;6.14;100.00;102479.06;6433834;23;20005;-71
2022/04/27 06:15:40;;;;;;;16.35;14.25;;;;;;;6.22;100.00;102476.13;6408146;23;20016;-71
2022/04/27 06:18:12;;;;;;;13.90;12.43;;;;;;;6.33;100.00;102484.34;6408228;23;20021;-71
2022/04/27 06:20:43;;;;;;;16.88;14.10;;;;;;;6.41;100.00;102487.50;6435392;23;20044;-71
2022/04/27 06:23:14;;;;;;;15.90;13.18;;;;;;;6.53;100.00;102486.97;6408776;23;20001;-71
2022/04/27 06:25:49;;;;;;;13.90;12.43;;;;;;;6.64;100.00;102483.09;6433377;23;20332;-71
2022/04/27 06:28:20;;;;;;;16.48;14.00;;;;;;;6.75;100.00;102481.72;6434158;23;20011;-71
2022/04/27 06:30:52;;;;;;;13.68;12.00;;;;;;;6.88;100.00;102486.41;6434946;23;20005;-70
2022/04/27 06:33:23;;;;;;;15.32;12.23;;;;;;;7.01;100.00;102488.41;6434937;23;20005;-71
2022/04/27 06:35:54;;;;;;;14.65;12.48;;;;;;;7.14;100.00;102493.94;6434572;23;20059;-71
2022/04/27 06:38:26;;;;;;;14.57;13.05;;;;;;;7.34;100.00;102495.66;6435339;23;20013;-71
2022/04/27 06:40:57;;;;;;;14.02;11.50;;;;;;;7.44;100.00;102502.16;6435202;23;20028;-70
2022/04/27 06:43:28;;;;;;;15.20;11.60;;;;;;;7.52;100.00;102492.22;6434502;23;20025;-71
2022/04/27 06:46:00;;;;;;;15.27;10.98;;;;;;;7.71;100.00;102501.81;6434728;23;20001;-70
2022/04/27 06:48:33;;;;;;;12.02;10.27;;;;;;;7.90;100.00;102499.19;6434599;23;20778;-72
2022/04/27 06:51:04;;;;;;;12.45;9.30;;;;;;;8.01;100.00;102502.13;6434694;23;20016;-71
2022/04/27 06:53:36;;;;;;;12.23;10.02;;;;;;;8.25;100.00;102502.72;6435051;23;20414;-71
2022/04/27 06:56:08;;;;;;;13.43;9.40;;;;;;;8.40;100.00;102502.00;6409259;23;20012;-71
2022/04/27 06:58:39;;;;;;;15.75;10.43;;;;;;;8.58;100.00;102509.88;6435106;23;20001;-71
2022/04/27 07:01:11;;;;;;;14.52;9.93;;;;;;;8.80;100.00;102514.88;6407302;23;20009;-71
2022/04/27 07:03:43;;;;;;;11.90;9.05;;;;;;;8.86;100.00;102512.75;6435071;23;20368;-71
2022/04/27 07:06:14;;;;;;;10.63;9.00;;;;;;;9.07;100.00;102510.00;6433493;23;20009;-71
2022/04/27 07:08:46;;;;;;;15.13;9.23;;;;;;;9.25;100.00;102519.50;6407531;23;20719;-71
2022/04/27 07:11:17;;;;;;;13.63;8.98;;;;;;;9.40;100.00;102518.69;6429795;23;20047;-71
2022/04/27 07:13:48;;;;;;;14.50;9.60;;;;;;;9.57;100.00;102517.78;6405341;23;20017;-71
2022/04/27 07:16:20;;;;;;;10.30;8.55;;;;;;;9.74;100.00;102519.50;6432655;23;20009;-71
2022/04/27 07:18:53;;;;;;;13.05;8.18;;;;;;;9.87;99.04;102511.81;6431474;23;20455;-71
2022/04/27 07:21:25;;;;;;;10.32;6.88;;;;;;;10.13;98.69;102515.59;6433444;23;20005;-71
2022/04/27 07:23:58;;;;;;;13.20;7.50;;;;;;;10.15;95.12;102518.94;6434058;23;20005;-71
2022/04/27 07:26:30;;;;;;;11.65;7.75;;;;;;;10.25;93.26;102525.41;6434110;23;20063;-70
2022/04/27 07:29:02;;;;;;;12.57;8.00;;;;;;;10.41;92.21;102522.75;6434581;23;20009;-70
2022/04/27 07:31:33;;;;;;;13.50;7.75;;;;;;;10.44;87.74;102527.81;6432694;23;20036;-70
2022/04/27 07:34:05;;;;;;;11.25;6.72;;;;;;;10.78;89.29;102526.69;6433667;23;20001;-71
2022/04/27 07:36:36;;;;;;;9.88;6.93;;;;;;;10.74;85.88;102530.44;6404577;23;20009;-71
2022/04/27 07:39:07;;;;;;;10.00;6.95;;;;;;;10.97;87.89;102529.09;6405661;23;20017;-71
2022/04/27 07:41:39;;;;;;;14.82;7.35;;;;;;;10.96;81.21;102530.03;6432941;23;20085;-71
2022/04/27 07:44:11;;;;;;;9.20;6.72;;;;;;;11.15;82.55;102535.00;6432572;23;20252;-71
2022/04/27 07:46:47;;;;;;;9.38;6.20;;;;;;;11.35;78.08;102537.25;6430470;23;20009;-71
2022/04/27 07:49:19;;;;;;;8.35;5.07;;;;;;;11.40;70.28;102534.34;6432062;23;20129;-71
2022/04/27 07:51:51;;;;;;;8.40;4.93;;;;;;;11.57;71.44;102536.78;6431853;23;20001;-72
2022/04/27 07:54:22;;;;;;;7.78;4.53;;;;;;;11.77;70.53;102538.16;6433384;23;20440;-71
2022/04/27 07:56:53;;;;;;;9.13;5.43;;;;;;;11.79;67.36;102535.47;6433060;23;20009;-71
2022/04/27 07:59:26;;;;;;;7.68;4.60;;;;;;;11.97;66.38;102538.72;6434318;23;20076;-71
2022/04/27 08:01:57;;;;;;;7.45;4.15;;;;;;;12.11;63.74;102542.16;6434813;23;20012;-71
2022/04/27 08:04:28;;;;;;;7.65;4.32;;;;;;;12.29;63.92;102541.91;6432719;23;20015;-71
2022/04/27 08:06:59;;;;;;;7.45;4.10;;;;;;;12.45;63.62;102550.47;6434559;23;20444;-71
2022/04/27 08:09:31;;;;;;;5.78;3.45;;;;;;;12.44;61.76;102546.16;6433939;23;20009;-71
2022/04/27 08:12:03;;;;;;;5.97;1.95;;;;;;;12.55;57.47;102545.47;6431750;23;20084;-71
2022/04/27 08:14:35;;;;;;;5.40;2.30;;;;;;;12.63;57.23;102548.44;6406893;23;20063;-71
2022/04/27 08:17:07;;;;;;;5.75;2.95;;;;;;;12.70;57.04;102547.09;6431596;23;20008;-71
2022/04/27 08:19:38;;;;;;;4.63;3.13;;;;;;;12.84;56.48;102557.53;6429543;23;20395;-72
2022/04/27 08:22:11;;;;;;;5.53;2.80;;;;;;;12.85;54.01;102553.94;6433811;23;20076;-72
2022/04/27 08:24:42;;;;;;;5.68;3.50;;;;;;;13.05;56.59;102559.66;6433578;23;20009;-71
2022/04/27 08:27:13;;;;;;;6.43;4.03;;;;;;;13.11;57.36;102559.25;6434978;23;20012;-72
2022/04/27 08:29:45;;;;;;;7.20;3.90;;;;;;;13.02;56.72;102555.44;6436618;23;20012;-70
2022/04/27 08:32:16;;;;;;;6.35;3.80;;;;;;;13.33;58.94;102558.63;6409210;23;20087;-71
2022/04/27 08:34:51;;;;;;;7.47;3.92;;;;;;;13.39;55.70;102561.69;6434622;23;20005;-71
2022/04/27 08:37:22;;;;;;;6.43;3.70;;;;;;;13.45;55.45;102557.78;6431692;23;20459;-71
2022/04/27 08:39:54;;;;;;;7.75;4.28;;;;;;;13.59;56.11;102565.53;6433268;23;20005;-71
2022/04/27 08:42:25;;;;;;;5.40;4.13;;;;;;;13.61;56.43;102563.66;6432405;23;20464;-71
2022/04/27 08:44:56;;;;;;;8.73;3.63;;;;;;;13.65;54.36;102563.44;6434473;23;20091;-72
2022/04/27 08:47:29;;;;;;;6.68;4.28;;;;;;;13.78;55.55;102565.09;6434550;23;20009;-71
2022/04/27 08:50:11;;;;;;;6.03;4.22;;;;;;;14.03;56.04;102564.19;6436755;23;20068;-71
2022/04/27 08:52:43;;;;;;;5.30;3.70;;;;;;;13.78;52.01;102570.34;6434027;23;20511;-72
2022/04/27 08:55:15;;;;;;;9.85;4.90;;;;;;;13.89;54.81;102572.22;6435764;23;20001;-72
2022/04/27 08:57:48;;;;;;;6.05;4.10;;;;;;;13.94;52.05;102574.53;6409331;23;20092;-71
2022/04/27 09:00:20;;;;;;;7.40;4.97;;;;;;;13.93;52.90;102581.59;6435991;23;20020;-71
2022/04/27 09:02:55;;;;;;;8.17;4.17;;;;;;;14.03;52.11;102579.16;6435950;23;20515;-71
2022/04/27 09:05:27;;;;;;;5.57;4.22;;;;;;;13.93;50.74;102576.31;6436482;23;20005;-71
2022/04/27 09:07:59;;;;;;;6.88;3.83;;;;;;;13.96;50.39;102572.66;6435803;23;20083;-70
2022/04/27 09:10:30;;;;;;;7.75;3.90;;;;;;;13.89;52.43;102574.88;6434714;23;20265;-70
2022/04/27 09:13:04;;;;;;;8.40;3.60;;;;;;;14.22;53.34;102573.41;6436084;23;20016;-70
2022/04/27 09:15:35;;;;;;;3.97;3.10;;;;;;;14.26;49.84;102573.06;6436202;23;20092;-70
2022/04/27 09:21:02;;;;;;;8.20;3.90;;;;;;;14.53;48.92;102566.75;6436378;23;20096;-70
2022/04/27 09:23:37;;;;;;;6.65;3.97;;;;;;;14.37;49.34;102561.72;6434605;23;20340;-70
2022/04/27 09:26:27;;;;;;;5.40;3.78;;;;;;;14.70;50.30;102568.97;6434663;23;20376;-71
2022/04/27 09:28:59;;;;;;;6.60;3.97;;;;;;;14.71;47.17;102570.66;6436872;23;20314;-70
2022/04/27 09:31:32;;;;;;;6.10;3.88;;;;;;;14.83;50.00;102567.09;6434968;23;20058;-70
2022/04/27 09:34:27;;;;;;;;;;;;;;;15.46;47.61;102570.19;6438360;23;20008;-70
2022/04/27 09:37:11;;;;;;;6.00;4.10;;;;;;;15.08;47.73;102567.88;6434865;23;20279;-71
2022/04/27 09:39:44;;;;;;;8.52;3.88;;;;;;;15.14;46.25;102569.19;6436930;23;20407;-70
2022/04/27 09:42:16;;;;;;;5.22;3.90;;;;;;;15.10;45.63;102568.59;6434668;23;20037;-70
2022/04/27 09:44:48;;;;;;;9.85;4.38;;;;;;;15.31;46.21;102566.94;6436203;23;20016;-70
2022/04/27 09:47:25;;;;;;;6.47;4.18;;;;;;;15.38;46.05;102571.72;6436712;23;20005;-71
2022/04/27 09:49:57;;;;;;;6.47;3.88;;;;;;;15.41;47.53;102568.84;6410276;23;20421;-70
2022/04/27 09:52:29;;;;;;;7.15;3.97;;;;;;;15.51;47.18;102570.66;6435854;23;20080;-70
2022/04/27 09:55:06;;;;;;;6.25;4.10;;;;;;;15.61;46.68;102580.50;6435261;23;20016;-71
2022/04/27 09:57:39;;;;;;;7.30;4.38;;;;;;;15.48;43.59;102572.69;6435574;23;20004;-70
2022/04/27 10:00:12;;;;;;;8.57;4.22;;;;;;;15.68;45.66;102572.03;6436291;23;20009;-71
2022/04/27 10:02:47;;;;;;;5.40;4.15;;;;;;;15.67;45.46;102564.19;6434800;23;20527;-71
2022/04/27 10:05:21;;;;;;;7.63;4.53;;;;;;;15.85;47.33;102562.75;6435725;23;20005;-71
2022/04/27 10:07:58;;;;;;;7.97;4.22;;;;;;;15.97;44.45;102567.03;6435360;23;20379;-71
2022/04/27 10:10:30;;;;;;;7.25;4.68;;;;;;;16.13;43.61;102569.28;6408533;23;20015;-72
2022/04/27 10:13:02;;;;;;;7.72;4.53;;;;;;;16.10;42.81;102576.63;6409116;23;20535;-72
2022/04/27 10:15:34;;;;;;;5.37;4.27;;;;;;;16.14;45.18;102568.34;6435749;23;20111;-71
2022/04/27 10:18:05;;;;;;;6.60;4.28;;;;;;;16.27;43.45;102568.16;6435505;23;20072;-70
2022/04/27 10:20:37;;;;;;;6.68;4.72;;;;;;;16.25;43.16;102564.78;6433385;23;20496;-72
2022/04/27 10:23:27;;;;;;;6.78;4.93;;;;;;;16.54;44.36;102565.06;6432444;23;20429;-71
2022/04/27 10:26:27;;;;;;;7.55;5.38;;;;;;;16.60;44.40;102561.06;6434711;23;20001;-72
2022/04/27 10:29:01;;;;;;;6.03;4.80;;;;;;;16.33;44.85;102564.16;6435318;23;20340;-71
2022/04/27 10:31:56;;;;;;;;;;;;;;;17.17;43.68;102558.00;6434904;23;20012;-71
2022/04/27 10:34:28;;;;;;;10.55;5.05;;;;;;;16.69;41.77;102558.47;6408978;23;20294;-73
2022/04/27 10:37:00;;;;;;;6.70;4.97;;;;;;;16.61;41.28;102560.94;6435604;23;20001;-73
2022/04/27 10:39:34;;;;;;;6.72;5.10;;;;;;;16.59;40.92;102554.09;6435504;23;20397;-70
2022/04/27 10:42:05;;;;;;;6.32;4.68;;;;;;;16.63;41.36;102545.78;6433738;23;20060;-73
2022/04/27 10:44:53;;;;;;;7.45;4.97;;;;;;;16.75;44.75;102547.44;6435375;23;20265;-72
2022/04/27 10:47:34;;;;;;;9.43;5.32;;;;;;;16.53;42.85;102548.34;6436117;23;20063;-72
2022/04/27 10:50:14;;;;;;;9.23;5.25;;;;;;;16.28;43.33;102548.69;6433658;23;20072;-72
2022/04/27 10:52:55;;;;;;;6.68;4.97;;;;;;;16.14;45.70;102549.84;6434121;23;20012;-73
2022/04/27 10:55:37;;;;;;;7.15;5.28;;;;;;;16.40;43.79;102555.63;6407873;23;20040;-72
2022/04/27 10:58:14;;;;;;;6.18;4.78;;;;;;;16.62;42.73;102552.03;6434258;23;20013;-73
2022/04/27 11:00:57;;;;;;;7.22;5.03;;;;;;;16.76;43.91;102549.09;6433063;23;20009;-71
2022/04/27 11:03:36;;;;;;;7.82;5.30;;;;;;;16.91;42.22;102551.44;6434495;23;20503;-71
2022/04/27 11:06:16;;;;;;;7.22;4.88;;;;;;;16.55;41.82;102558.78;6434184;23;20394;-70
2022/04/27 11:09:01;;;;;;;10.05;5.80;;;;;;;16.38;43.52;102560.19;6436340;23;20437;-73
2022/04/27 11:11:32;;;;;;;6.70;4.68;;;;;;;16.40;43.60;102557.41;6436421;23;20490;-70
2022/04/27 11:14:09;;;;;;;8.05;5.30;;;;;;;16.14;45.24;102547.19;6436021;22;20087;-70
2022/04/27 11:16:48;;;;;;;6.53;5.13;;;;;;;16.21;42.95;102561.59;6435755;23;20005;-70
2022/04/27 11:19:19;;;;;;;7.20;5.00;;;;;;;16.30;44.02;102547.59;6436515;23;20011;-70
2022/04/27 11:21:51;;;;;;;8.90;5.07;;;;;;;16.44;44.38;102543.84;6435823;23;20076;-70
2022/04/27 11:24:28;;;;;;;6.93;4.82;;;;;;;16.70;43.77;102548.72;6435916;23;20015;-70
2022/04/27 11:26:59;;;;;;;7.90;5.00;;;;;;;16.66;41.46;102536.72;6436296;23;20008;-70
2022/04/27 11:29:32;;;;;;;9.05;5.20;;;;;;;16.89;40.66;102543.59;6436650;23;20001;-71
2022/04/27 11:32:08;;;;;;;6.45;4.55;;;;;;;16.91;40.09;102540.84;6435717;23;20009;-70
2022/04/27 11:34:40;;;;;;;7.47;4.80;;;;;;;17.00;41.34;102540.88;6437396;23;20055;-70
2022/04/27 11:37:17;;;;;;;9.50;5.05;;;;;;;17.33;41.43;102535.47;6437485;23;20009;-69
2022/04/27 11:39:49;;;;;;;7.53;4.57;;;;;;;17.41;40.50;102539.13;6436406;23;20008;-69
2022/04/27 11:42:20;;;;;;;6.60;4.68;;;;;;;17.52;38.44;102536.38;6437182;22;20021;-71
2022/04/27 11:45:01;;;;;;;6.93;4.30;;;;;;;17.85;39.65;102541.53;6437483;23;20147;-72
2022/04/27 11:47:33;;;;;;;6.35;4.07;;;;;;;17.85;38.53;102542.38;6410228;23;20436;-72
2022/04/27 11:50:08;;;;;;;7.88;4.13;;;;;;;17.71;40.06;102538.25;6436984;23;20001;-70
2022/04/27 11:52:40;;;;;;;6.38;4.75;;;;;;;17.52;38.83;102544.34;6410600;23;20001;-70
2022/04/27 11:55:14;;;;;;;6.15;4.50;;;;;;;17.34;39.52;102542.44;6435746;23;20016;-71
2022/04/27 11:57:46;;;;;;;6.95;4.85;;;;;;;17.22;39.88;102536.41;6437214;23;20437;-69